sensor_id;sensor_type;location;lat;lon;timestamp;pressure;altitude;pressure_sealevel;temperature;humidity
39197;BME280;42889;51.112;13.772;2023-01-29T00:01:32;100314.38;;;-1.94;100.00
39197;BME280;42889;51.112;13.772;2023-01-29T00:03:59;100313.94;;;-2.06;100.00
39197;BME280;42889;51.112;13.772;2023-01-29T00:06:26;100310.66;;;-2.15;100.00
39197;BME280;42889;51.112;13.772;2023-01-29T00:08:53;100308.34;;;-1.97;100.00
39197;BME280;42889;51.112;13.772;2023-01-29T00:11:19;100307.31;;;-1.93;100.00
39197;BME280;42889;51.112;13.772;2023-01-29T00:13:46;100311.00;;;-1.97;100.00
39197;BME280;42889;51.112;13.772;2023-01-29T00:16:13;100304.75;;;-1.95;100.00
39197;BME280;42889;51.112;13.772;2023-01-29T00:18:40;100303.72;;;-1.91;100.00
39197;BME280;42889;51.112;13.772;2023-01-29T00:21:17;100291.56;;;-1.95;100.00
39197;BME280;42889;51.112;13.772;2023-01-29T00:23:44;100291.81;;;-2.02;100.00
39197;BME280;42889;51.112;13.772;2023-01-29T00:26:11;100303.22;;;-2.02;100.00
39197;BME280;42889;51.112;13.772;2023-01-29T00:28:43;100293.63;;;-2.04;100.00
39197;BME280;42889;51.112;13.772;2023-01-29T00:31:11;100289.41;;;-2.10;100.00
39197;BME280;42889;51.112;13.772;2023-01-29T00:33:38;100280.22;;;-1.98;100.00
39197;BME280;42889;51.112;13.772;2023-01-29T00:36:08;100280.22;;;-1.98;100.00
39197;BME280;42889;51.112;13.772;2023-01-29T00:38:36;100286.53;;;-2.02;100.00
39197;BME280;42889;51.112;13.772;2023-01-29T00:43:51;100285.47;;;-1.97;100.00
39197;BME280;42889;51.112;13.772;2023-01-29T00:46:37;100278.28;;;-1.93;100.00
39197;BME280;42889;51.112;13.772;2023-01-29T00:49:04;100275.16;;;-2.04;100.00
39197;BME280;42889;51.112;13.772;2023-01-29T00:51:31;100278.78;;;-2.07;100.00
39197;BME280;42889;51.112;13.772;2023-01-29T00:53:58;100271.72;;;-2.06;100.00
39197;BME280;42889;51.112;13.772;2023-01-29T00:56:25;100273.59;;;-2.10;100.00
39197;BME280;42889;51.112;13.772;2023-01-29T00:58:52;100276.78;;;-2.00;100.00
39197;BME280;42889;51.112;13.772;2023-01-29T01:01:19;100279.34;;;-1.97;100.00
39197;BME280;42889;51.112;13.772;2023-01-29T01:04:08;100279.38;;;-1.99;100.00
39197;BME280;42889;51.112;13.772;2023-01-29T01:06:39;100283.75;;;-1.98;100.00
39197;BME280;42889;51.112;13.772;2023-01-29T01:09:08;100287.50;;;-2.05;100.00
39197;BME280;42889;51.112;13.772;2023-01-29T01:11:54;100287.41;;;-2.02;100.00
39197;BME280;42889;51.112;13.772;2023-01-29T01:14:21;100288.13;;;-1.98;100.00
39197;BME280;42889;51.112;13.772;2023-01-29T01:16:48;100284.66;;;-1.99;100.00
39197;BME280;42889;51.112;13.772;2023-01-29T01:19:15;100280.22;;;-1.98;100.00
39197;BME280;42889;51.112;13.772;2023-01-29T01:21:42;100284.63;;;-1.97;100.00
39197;BME280;42889;51.112;13.772;2023-01-29T01:24:11;100272.50;;;-2.03;100.00
39197;BME280;42889;51.112;13.772;2023-01-29T01:26:38;100272.53;;;-2.04;100.00
39197;BME280;42889;51.112;13.772;2023-01-29T01:29:05;100271.78;;;-2.08;100.00
39197;BME280;42889;51.112;13.772;2023-01-29T01:31:32;100271.81;;;-2.09;100.00
39197;BME280;42889;51.112;13.772;2023-01-29T01:33:59;100266.81;;;-2.17;100.00
39197;BME280;42889;51.112;13.772;2023-01-29T01:36:26;100277.16;;;-2.11;100.00
39197;BME280;42889;51.112;13.772;2023-01-29T01:38:52;100277.09;;;-2.09;100.00
39197;BME280;42889;51.112;13.772;2023-01-29T01:41:21;100274.56;;;-2.13;100.00
39197;BME280;42889;51.112;13.772;2023-01-29T01:43:52;100257.03;;;-2.14;100.00
39197;BME280;42889;51.112;13.772;2023-01-29T01:46:20;100258.81;;;-2.14;100.00
39197;BME280;42889;51.112;13.772;2023-01-29T01:48:55;100253.56;;;-2.16;100.00
39197;BME280;42889;51.112;13.772;2023-01-29T01:51:25;100245.00;;;-2.22;100.00
39197;BME280;42889;51.112;13.772;2023-01-29T01:53:57;100256.72;;;-2.31;100.00
39197;BME280;42889;51.112;13.772;2023-01-29T01:56:31;100267.22;;;-2.29;100.00
39197;BME280;42889;51.112;13.772;2023-01-29T01:59:06;100273.56;;;-2.35;100.00
39197;BME280;42889;51.112;13.772;2023-01-29T02:01:34;100264.53;;;-2.28;100.00
39197;BME280;42889;51.112;13.772;2023-01-29T02:04:05;100261.91;;;-2.28;100.00
39197;BME280;42889;51.112;13.772;2023-01-29T02:06:52;100250.63;;;-2.33;100.00
39197;BME280;42889;51.112;13.772;2023-01-29T02:09:45;100245.44;;;-2.34;100.00
39197;BME280;42889;51.112;13.772;2023-01-29T02:12:15;100242.84;;;-2.36;100.00
39197;BME280;42889;51.112;13.772;2023-01-29T02:14:43;100239.44;;;-2.40;100.00
39197;BME280;42889;51.112;13.772;2023-01-29T02:17:12;100240.34;;;-2.41;100.00
39197;BME280;42889;51.112;13.772;2023-01-29T02:30:40;100250.63;;;-2.59;100.00
39197;BME280;42889;51.112;13.772;2023-01-29T02:41:23;100234.59;;;-2.80;100.00
39197;BME280;42889;51.112;13.772;2023-01-29T02:43:55;100243.06;;;-2.98;100.00
39197;BME280;42889;51.112;13.772;2023-01-29T02:46:34;100249.16;;;-2.96;100.00
39197;BME280;42889;51.112;13.772;2023-01-29T02:49:23;100240.47;;;-3.00;100.00
39197;BME280;42889;51.112;13.772;2023-01-29T02:52:01;100251.78;;;-2.96;100.00
39197;BME280;42889;51.112;13.772;2023-01-29T02:54:43;100243.03;;;-2.97;100.00
39197;BME280;42889;51.112;13.772;2023-01-29T02:57:20;100250.09;;;-2.99;100.00
39197;BME280;42889;51.112;13.772;2023-01-29T02:59:56;100244.03;;;-3.02;100.00
39197;BME280;42889;51.112;13.772;2023-01-29T03:02:31;100253.97;;;-3.10;100.00
39197;BME280;42889;51.112;13.772;2023-01-29T03:05:03;100251.38;;;-3.12;100.00
39197;BME280;42889;51.112;13.772;2023-01-29T03:07:36;100252.19;;;-3.10;100.00
39197;BME280;42889;51.112;13.772;2023-01-29T03:13:14;100253.19;;;-3.14;100.00
39197;BME280;42889;51.112;13.772;2023-01-29T03:15:51;100252.63;;;-3.25;100.00
39197;BME280;42889;51.112;13.772;2023-01-29T03:18:41;100262.84;;;-3.14;100.00
39197;BME280;42889;51.112;13.772;2023-01-29T03:21:17;100258.50;;;-3.15;100.00
39197;BME280;42889;51.112;13.772;2023-01-29T03:24:05;100242.47;;;-3.37;100.00
39197;BME280;42889;51.112;13.772;2023-01-29T03:26:52;100241.31;;;-3.27;100.00
39197;BME280;42889;51.112;13.772;2023-01-29T03:29:44;100247.41;;;-3.27;100.00
39197;BME280;42889;51.112;13.772;2023-01-29T03:32:50;100239.53;;;-3.27;100.00
39197;BME280;42889;51.112;13.772;2023-01-29T03:35:21;100245.97;;;-3.37;100.00
39197;BME280;42889;51.112;13.772;2023-01-29T03:37:59;100245.88;;;-3.34;100.00
39197;BME280;42889;51.112;13.772;2023-01-29T03:40:28;100248.28;;;-3.26;100.00
39197;BME280;42889;51.112;13.772;2023-01-29T03:45:46;100246.09;;;-3.41;100.00
39197;BME280;42889;51.112;13.772;2023-01-29T03:51:19;100239.53;;;-3.56;100.00
39197;BME280;42889;51.112;13.772;2023-01-29T03:59:23;100253.53;;;-3.56;100.00
39197;BME280;42889;51.112;13.772;2023-01-29T04:02:21;100252.66;;;-3.56;100.00
39197;BME280;42889;51.112;13.772;2023-01-29T04:04:59;100254.75;;;-3.67;100.00
39197;BME280;42889;51.112;13.772;2023-01-29T04:07:29;100252.00;;;-3.64;100.00
39197;BME280;42889;51.112;13.772;2023-01-29T04:10:15;100240.72;;;-3.68;100.00
39197;BME280;42889;51.112;13.772;2023-01-29T04:12:47;100237.22;;;-3.68;100.00
39197;BME280;42889;51.112;13.772;2023-01-29T04:15:16;100243.22;;;-3.63;100.00
39197;BME280;42889;51.112;13.772;2023-01-29T04:17:50;100230.22;;;-3.68;100.00
39197;BME280;42889;51.112;13.772;2023-01-29T04:20:45;100216.31;;;-3.73;100.00
39197;BME280;42889;51.112;13.772;2023-01-29T04:23:23;100210.22;;;-3.75;100.00
39197;BME280;42889;51.112;13.772;2023-01-29T04:31:52;100210.81;;;-3.65;100.00
39197;BME280;42889;51.112;13.772;2023-01-29T04:37:11;100201.47;;;-3.76;100.00
39197;BME280;42889;51.112;13.772;2023-01-29T04:39:48;100198.72;;;-3.71;100.00
39197;BME280;42889;51.112;13.772;2023-01-29T04:42:26;100198.84;;;-3.76;100.00
39197;BME280;42889;51.112;13.772;2023-01-29T04:45:08;100195.53;;;-3.82;100.00
39197;BME280;42889;51.112;13.772;2023-01-29T04:48:02;100190.38;;;-3.87;100.00
39197;BME280;42889;51.112;13.772;2023-01-29T04:50:39;100197.13;;;-3.77;100.00
39197;BME280;42889;51.112;13.772;2023-01-29T04:53:24;100186.72;;;-3.81;100.00
39197;BME280;42889;51.112;13.772;2023-01-29T04:58:54;100175.56;;;-3.89;100.00
39197;BME280;42889;51.112;13.772;2023-01-29T05:01:26;100165.69;;;-3.81;100.00
39197;BME280;42889;51.112;13.772;2023-01-29T05:03:55;100162.19;;;-3.82;100.00
39197;BME280;42889;51.112;13.772;2023-01-29T05:06:23;100163.19;;;-3.86;100.00
39197;BME280;42889;51.112;13.772;2023-01-29T05:08:51;100156.56;;;-3.99;100.00
39197;BME280;42889;51.112;13.772;2023-01-29T05:11:19;100162.31;;;-3.86;100.00
39197;BME280;42889;51.112;13.772;2023-01-29T05:13:47;100155.41;;;-3.90;100.00
39197;BME280;42889;51.112;13.772;2023-01-29T05:16:21;100157.97;;;-3.87;100.00
39197;BME280;42889;51.112;13.772;2023-01-29T05:18:49;100157.19;;;-3.91;100.00
39197;BME280;42889;51.112;13.772;2023-01-29T05:21:16;100152.66;;;-3.86;100.00
39197;BME280;42889;51.112;13.772;2023-01-29T05:23:42;100152.84;;;-3.92;100.00
39197;BME280;42889;51.112;13.772;2023-01-29T05:26:19;100145.69;;;-3.87;100.00
39197;BME280;42889;51.112;13.772;2023-01-29T05:29:05;100143.13;;;-3.88;100.00
39197;BME280;42889;51.112;13.772;2023-01-29T05:31:31;100146.53;;;-3.86;100.00
39197;BME280;42889;51.112;13.772;2023-01-29T05:33:58;100142.38;;;-3.93;100.00
39197;BME280;42889;51.112;13.772;2023-01-29T05:36:25;100144.03;;;-3.91;100.00
39197;BME280;42889;51.112;13.772;2023-01-29T05:38:52;100145.94;;;-3.96;100.00
39197;BME280;42889;51.112;13.772;2023-01-29T05:41:19;100142.56;;;-4.01;100.00
39197;BME280;42889;51.112;13.772;2023-01-29T05:43:46;100129.97;;;-3.88;100.00
39197;BME280;42889;51.112;13.772;2023-01-29T05:46:13;100136.94;;;-3.87;100.00
39197;BME280;42889;51.112;13.772;2023-01-29T05:48:39;100138.84;;;-3.92;100.00
39197;BME280;42889;51.112;13.772;2023-01-29T05:51:06;100138.78;;;-3.91;100.00
39197;BME280;42889;51.112;13.772;2023-01-29T05:53:32;100129.06;;;-3.87;100.00
39197;BME280;42889;51.112;13.772;2023-01-29T05:56:00;100126.53;;;-3.92;100.00
39197;BME280;42889;51.112;13.772;2023-01-29T05:58:31;100136.88;;;-3.84;100.00
39197;BME280;42889;51.112;13.772;2023-01-29T06:03:36;100144.41;;;-3.74;100.00
39197;BME280;42889;51.112;13.772;2023-01-29T06:06:02;100145.84;;;-3.62;100.00
39197;BME280;42889;51.112;13.772;2023-01-29T06:08:29;100147.28;;;-3.52;100.00
39197;BME280;42889;51.112;13.772;2023-01-29T06:10:56;100149.78;;;-3.47;100.00
39197;BME280;42889;51.112;13.772;2023-01-29T06:13:22;100148.91;;;-3.48;100.00
39197;BME280;42889;51.112;13.772;2023-01-29T06:15:49;100139.88;;;-3.39;100.00
39197;BME280;42889;51.112;13.772;2023-01-29T06:18:16;100150.47;;;-3.40;100.00
39197;BME280;42889;51.112;13.772;2023-01-29T06:20:43;100157.63;;;-3.46;100.00
39197;BME280;42889;51.112;13.772;2023-01-29T06:23:09;100170.28;;;-3.29;100.00
39197;BME280;42889;51.112;13.772;2023-01-29T06:25:36;100172.19;;;-3.34;100.00
39197;BME280;42889;51.112;13.772;2023-01-29T06:28:03;100178.13;;;-3.27;100.00
39197;BME280;42889;51.112;13.772;2023-01-29T06:30:30;100180.03;;;-3.32;100.00
39197;BME280;42889;51.112;13.772;2023-01-29T06:32:57;100177.75;;;-3.15;100.00
39197;BME280;42889;51.112;13.772;2023-01-29T06:35:24;100180.19;;;-3.09;100.00
39197;BME280;42889;51.112;13.772;2023-01-29T06:37:51;100181.97;;;-3.09;100.00
39197;BME280;42889;51.112;13.772;2023-01-29T06:40:18;100186.50;;;-3.14;100.00
39197;BME280;42889;51.112;13.772;2023-01-29T06:42:45;100188.13;;;-3.10;100.00
39197;BME280;42889;51.112;13.772;2023-01-29T06:45:12;100193.66;;;-3.18;100.00
39197;BME280;42889;51.112;13.772;2023-01-29T06:47:38;100195.06;;;-3.08;100.00
39197;BME280;42889;51.112;13.772;2023-01-29T06:50:05;100190.81;;;-3.12;100.00
39197;BME280;42889;51.112;13.772;2023-01-29T06:52:32;100203.03;;;-3.09;100.00
39197;BME280;42889;51.112;13.772;2023-01-29T06:54:58;100215.28;;;-3.08;100.00
39197;BME280;42889;51.112;13.772;2023-01-29T06:57:27;100229.09;;;-3.00;100.00
39197;BME280;42889;51.112;13.772;2023-01-29T06:59:55;100237.84;;;-3.00;100.00
39197;BME280;42889;51.112;13.772;2023-01-29T07:02:21;100236.72;;;-2.91;100.00
39197;BME280;42889;51.112;13.772;2023-01-29T07:04:48;100234.44;;;-3.03;100.00
39197;BME280;42889;51.112;13.772;2023-01-29T07:07:14;100236.72;;;-2.93;100.00
39197;BME280;42889;51.112;13.772;2023-01-29T07:09:42;100242.66;;;-2.86;100.00
39197;BME280;42889;51.112;13.772;2023-01-29T07:12:09;100242.66;;;-2.86;100.00
39197;BME280;42889;51.112;13.772;2023-01-29T07:14:36;100245.09;;;-2.78;100.00
39197;BME280;42889;51.112;13.772;2023-01-29T07:17:03;100258.13;;;-2.75;100.00
39197;BME280;42889;51.112;13.772;2023-01-29T07:19:29;100247.78;;;-2.80;100.00
39197;BME280;42889;51.112;13.772;2023-01-29T07:21:56;100246.88;;;-2.80;100.00
39197;BME280;42889;51.112;13.772;2023-01-29T07:24:22;100250.50;;;-2.83;100.00
39197;BME280;42889;51.112;13.772;2023-01-29T07:26:50;100246.03;;;-2.81;100.00
39197;BME280;42889;51.112;13.772;2023-01-29T07:29:17;100241.59;;;-2.79;100.00
39197;BME280;42889;51.112;13.772;2023-01-29T07:31:43;100231.06;;;-2.79;100.00
39197;BME280;42889;51.112;13.772;2023-01-29T07:34:10;100231.78;;;-2.74;100.00
39197;BME280;42889;51.112;13.772;2023-01-29T07:36:37;100228.88;;;-2.66;100.00
39197;BME280;42889;51.112;13.772;2023-01-29T07:39:03;100220.47;;;-2.77;100.00
39197;BME280;42889;51.112;13.772;2023-01-29T07:41:30;100223.03;;;-2.76;100.00
39197;BME280;42889;51.112;13.772;2023-01-29T07:43:58;100225.59;;;-2.73;100.00
39197;BME280;42889;51.112;13.772;2023-01-29T07:46:25;100216.69;;;-2.69;100.00
39197;BME280;42889;51.112;13.772;2023-01-29T07:48:51;100220.06;;;-2.65;100.00
39197;BME280;42889;51.112;13.772;2023-01-29T07:51:18;100213.84;;;-2.62;100.00
39197;BME280;42889;51.112;13.772;2023-01-29T07:53:46;100207.72;;;-2.63;100.00
39197;BME280;42889;51.112;13.772;2023-01-29T07:56:13;100203.03;;;-2.55;100.00
39197;BME280;42889;51.112;13.772;2023-01-29T07:58:40;100201.97;;;-2.49;100.00
39197;BME280;42889;51.112;13.772;2023-01-29T08:01:07;100193.66;;;-2.37;100.00
39197;BME280;42889;51.112;13.772;2023-01-29T08:03:34;100192.63;;;-2.33;100.00
39197;BME280;42889;51.112;13.772;2023-01-29T08:06:02;100186.56;;;-2.35;100.00
39197;BME280;42889;51.112;13.772;2023-01-29T08:08:29;100192.56;;;-2.30;100.00
39197;BME280;42889;51.112;13.772;2023-01-29T08:10:56;100185.34;;;-2.25;100.00
39197;BME280;42889;51.112;13.772;2023-01-29T08:13:22;100187.72;;;-2.17;100.00
39197;BME280;42889;51.112;13.772;2023-01-29T08:15:49;100177.00;;;-2.13;100.00
39197;BME280;42889;51.112;13.772;2023-01-29T08:18:15;100169.34;;;-2.20;100.00
39197;BME280;42889;51.112;13.772;2023-01-29T08:20:42;100160.25;;;-2.12;100.00
39197;BME280;42889;51.112;13.772;2023-01-29T08:23:13;100164.56;;;-2.09;100.00
39197;BME280;42889;51.112;13.772;2023-01-29T08:25:40;100164.44;;;-2.06;100.00
39197;BME280;42889;51.112;13.772;2023-01-29T08:28:07;100166.81;;;-1.98;100.00
39197;BME280;42889;51.112;13.772;2023-01-29T08:30:34;100152.06;;;-2.04;100.00
39197;BME280;42889;51.112;13.772;2023-01-29T08:33:02;100163.47;;;-2.03;100.00
39197;BME280;42889;51.112;13.772;2023-01-29T08:35:29;100167.03;;;-2.04;100.00
39197;BME280;42889;51.112;13.772;2023-01-29T08:37:58;100161.91;;;-2.09;100.00
39197;BME280;42889;51.112;13.772;2023-01-29T08:40:27;100172.00;;;-1.95;100.00
39197;BME280;42889;51.112;13.772;2023-01-29T08:42:58;100166.50;;;-1.89;100.00
39197;BME280;42889;51.112;13.772;2023-01-29T08:45:28;100171.81;;;-1.91;100.00
39197;BME280;42889;51.112;13.772;2023-01-29T08:47:55;100180.59;;;-1.90;100.00
39197;BME280;42889;51.112;13.772;2023-01-29T08:50:22;100185.94;;;-1.92;100.00
39197;BME280;42889;51.112;13.772;2023-01-29T08:52:49;100190.13;;;-1.86;100.00
39197;BME280;42889;51.112;13.772;2023-01-29T08:55:16;100183.66;;;-1.77;100.00
39197;BME280;42889;51.112;13.772;2023-01-29T08:57:43;100186.44;;;-1.82;100.00
39197;BME280;42889;51.112;13.772;2023-01-29T09:00:10;100178.59;;;-1.83;100.00
39197;BME280;42889;51.112;13.772;2023-01-29T09:02:37;100172.81;;;-1.70;100.00
39197;BME280;42889;51.112;13.772;2023-01-29T09:05:04;100165.81;;;-1.71;100.00
39197;BME280;42889;51.112;13.772;2023-01-29T09:07:31;100159.72;;;-1.73;100.00
39197;BME280;42889;51.112;13.772;2023-01-29T09:09:58;100153.59;;;-1.73;100.00
39197;BME280;42889;51.112;13.772;2023-01-29T09:12:25;100159.09;;;-1.79;100.00
39197;BME280;42889;51.112;13.772;2023-01-29T09:14:52;100166.16;;;-1.80;100.00
39197;BME280;42889;51.112;13.772;2023-01-29T09:17:19;100171.16;;;-1.72;100.00
39197;BME280;42889;51.112;13.772;2023-01-29T09:19:45;100166.56;;;-1.67;100.00
39197;BME280;42889;51.112;13.772;2023-01-29T09:22:12;100163.13;;;-1.69;100.00
39197;BME280;42889;51.112;13.772;2023-01-29T09:24:39;100164.72;;;-1.65;100.00
39197;BME280;42889;51.112;13.772;2023-01-29T09:27:05;100152.59;;;-1.71;100.00
39197;BME280;42889;51.112;13.772;2023-01-29T09:29:32;100152.13;;;-1.80;100.00
39197;BME280;42889;51.112;13.772;2023-01-29T09:32:03;100143.97;;;-1.74;100.00
39197;BME280;42889;51.112;13.772;2023-01-29T09:34:30;100153.66;;;-1.75;100.00
39197;BME280;42889;51.112;13.772;2023-01-29T09:36:57;100168.63;;;-1.75;100.00
39197;BME280;42889;51.112;13.772;2023-01-29T09:39:23;100157.38;;;-1.80;100.00
39197;BME280;42889;51.112;13.772;2023-01-29T09:42:10;100160.06;;;-1.82;100.00
39197;BME280;42889;51.112;13.772;2023-01-29T09:45:11;100151.81;;;-1.73;100.00
39197;BME280;42889;51.112;13.772;2023-01-29T09:47:40;100150.09;;;-1.74;100.00
39197;BME280;42889;51.112;13.772;2023-01-29T09:50:14;100141.31;;;-1.74;100.00
39197;BME280;42889;51.112;13.772;2023-01-29T09:52:50;100138.53;;;-1.70;100.00
39197;BME280;42889;51.112;13.772;2023-01-29T09:55:27;100129.50;;;-1.64;100.00
39197;BME280;42889;51.112;13.772;2023-01-29T09:58:13;100118.25;;;-1.46;100.00
39197;BME280;42889;51.112;13.772;2023-01-29T10:14:44;100111.66;;;-1.57;100.00
39197;BME280;42889;51.112;13.772;2023-01-29T10:23:18;100119.03;;;-1.44;100.00
39197;BME280;42889;51.112;13.772;2023-01-29T10:25:47;100105.66;;;-1.39;100.00
39197;BME280;42889;51.112;13.772;2023-01-29T10:28:25;100115.44;;;-1.41;100.00
39197;BME280;42889;51.112;13.772;2023-01-29T10:31:09;100120.53;;;-1.37;100.00
39197;BME280;42889;51.112;13.772;2023-01-29T10:33:45;100125.84;;;-1.38;100.00
39197;BME280;42889;51.112;13.772;2023-01-29T10:36:46;100117.91;;;-1.37;100.00
39197;BME280;42889;51.112;13.772;2023-01-29T10:39:18;100118.44;;;-1.28;100.00
39197;BME280;42889;51.112;13.772;2023-01-29T10:50:13;100105.50;;;-1.13;100.00
39197;BME280;42889;51.112;13.772;2023-01-29T10:52:55;100088.66;;;-1.10;100.00
39197;BME280;42889;51.112;13.772;2023-01-29T10:55:38;100068.41;;;-1.10;100.00
39197;BME280;42889;51.112;13.772;2023-01-29T11:00:59;100060.66;;;-1.14;100.00
39197;BME280;42889;51.112;13.772;2023-01-29T11:03:31;100054.31;;;-1.10;100.00
39197;BME280;42889;51.112;13.772;2023-01-29T11:09:02;100049.94;;;-1.11;100.00
39197;BME280;42889;51.112;13.772;2023-01-29T11:11:40;100045.47;;;-1.09;100.00
39197;BME280;42889;51.112;13.772;2023-01-29T11:14:19;100039.97;;;-1.04;100.00
39197;BME280;42889;51.112;13.772;2023-01-29T11:16:47;100032.06;;;-1.04;100.00
39197;BME280;42889;51.112;13.772;2023-01-29T11:19:15;100026.78;;;-1.04;100.00
39197;BME280;42889;51.112;13.772;2023-01-29T11:21:55;100028.91;;;-1.13;100.00
39197;BME280;42889;51.112;13.772;2023-01-29T11:24:23;100025.31;;;-1.12;100.00
39197;BME280;42889;51.112;13.772;2023-01-29T11:26:52;100018.63;;;-0.98;100.00
39197;BME280;42889;51.112;13.772;2023-01-29T11:31:52;100008.22;;;-0.83;100.00
39197;BME280;42889;51.112;13.772;2023-01-29T11:34:22;99999.41;;;-0.82;100.00
39197;BME280;42889;51.112;13.772;2023-01-29T11:36:59;100000.50;;;-0.67;100.00
39197;BME280;42889;51.112;13.772;2023-01-29T11:39:28;99991.66;;;-0.66;100.00
39197;BME280;42889;51.112;13.772;2023-01-29T11:41:59;100001.31;;;-0.65;100.00
39197;BME280;42889;51.112;13.772;2023-01-29T11:46:52;100009.44;;;-0.69;100.00
39197;BME280;42889;51.112;13.772;2023-01-29T11:49:24;99999.06;;;-0.74;100.00
39197;BME280;42889;51.112;13.772;2023-01-29T11:51:54;100005.34;;;-0.76;100.00
39197;BME280;42889;51.112;13.772;2023-01-29T11:54:25;100002.72;;;-0.76;100.00
39197;BME280;42889;51.112;13.772;2023-01-29T11:56:54;99998.72;;;-0.66;100.00
39197;BME280;42889;51.112;13.772;2023-01-29T11:59:40;99987.72;;;-0.76;100.00
39197;BME280;42889;51.112;13.772;2023-01-29T12:02:30;99989.34;;;-0.73;100.00
39197;BME280;42889;51.112;13.772;2023-01-29T12:05:18;99974.06;;;-0.67;100.00
39197;BME280;42889;51.112;13.772;2023-01-29T12:07:49;99968.59;;;-0.62;100.00
39197;BME280;42889;51.112;13.772;2023-01-29T12:15:36;99968.56;;;-0.42;100.00
39197;BME280;42889;51.112;13.772;2023-01-29T12:20:34;99949.19;;;-0.42;100.00
39197;BME280;42889;51.112;13.772;2023-01-29T12:31:25;99920.53;;;-0.14;100.00
39197;BME280;42889;51.112;13.772;2023-01-29T12:34:09;99915.63;;;-0.21;100.00
39197;BME280;42889;51.112;13.772;2023-01-29T12:36:48;99927.53;;;-0.13;100.00
39197;BME280;42889;51.112;13.772;2023-01-29T12:39:19;99924.03;;;-0.13;100.00
39197;BME280;42889;51.112;13.772;2023-01-29T12:41:57;99919.13;;;-0.21;100.00
39197;BME280;42889;51.112;13.772;2023-01-29T12:44:33;99927.19;;;-0.24;100.00
39197;BME280;42889;51.112;13.772;2023-01-29T12:47:02;99932.69;;;-0.29;100.00
39197;BME280;42889;51.112;13.772;2023-01-29T12:49:34;99913.81;;;-0.21;100.00
39197;BME280;42889;51.112;13.772;2023-01-29T12:54:56;99920.75;;;-0.18;100.00
39197;BME280;42889;51.112;13.772;2023-01-29T13:00:14;99900.16;;;-0.31;100.00
39197;BME280;42889;51.112;13.772;2023-01-29T13:05:29;99907.44;;;-0.36;100.00
39197;BME280;42889;51.112;13.772;2023-01-29T13:08:07;99912.53;;;-0.31;100.00
39197;BME280;42889;51.112;13.772;2023-01-29T13:10:41;99900.00;;;-0.28;100.00
39197;BME280;42889;51.112;13.772;2023-01-29T13:13:21;99897.22;;;-0.24;100.00
39197;BME280;42889;51.112;13.772;2023-01-29T13:15:52;99885.66;;;-0.22;100.00
39197;BME280;42889;51.112;13.772;2023-01-29T13:21:03;99886.78;;;-0.09;100.00
39197;BME280;42889;51.112;13.772;2023-01-29T13:23:39;99883.63;;;-0.17;100.00
39197;BME280;42889;51.112;13.772;2023-01-29T13:26:08;99879.13;;;-0.15;100.00
39197;BME280;42889;51.112;13.772;2023-01-29T13:28:35;99871.03;;;-0.12;100.00
39197;BME280;42889;51.112;13.772;2023-01-29T13:31:32;99871.50;;;-0.21;100.00
39197;BME280;42889;51.112;13.772;2023-01-29T13:34:11;99876.56;;;-0.16;100.00
39197;BME280;42889;51.112;13.772;2023-01-29T13:36:44;99884.50;;;-0.16;100.00
39197;BME280;42889;51.112;13.772;2023-01-29T13:39:39;99879.22;;;-0.16;100.00
39197;BME280;42889;51.112;13.772;2023-01-29T13:44:47;99870.19;;;-0.12;100.00
39197;BME280;42889;51.112;13.772;2023-01-29T13:47:29;99882.63;;;-0.14;100.00
39197;BME280;42889;51.112;13.772;2023-01-29T13:52:41;99891.69;;;-0.01;100.00
39197;BME280;42889;51.112;13.772;2023-01-29T14:08:08;99861.47;;;-0.14;100.00
39197;BME280;42889;51.112;13.772;2023-01-29T14:13:48;99871.34;;;-0.18;100.00
39197;BME280;42889;51.112;13.772;2023-01-29T14:18:59;99869.63;;;-0.19;100.00
39197;BME280;42889;51.112;13.772;2023-01-29T14:21:35;99872.91;;;-0.14;100.00
39197;BME280;42889;51.112;13.772;2023-01-29T14:26:43;99858.63;;;-0.10;100.00
39197;BME280;42889;51.112;13.772;2023-01-29T14:31:57;99863.91;;;-0.10;100.00
39197;BME280;42889;51.112;13.772;2023-01-29T14:34:34;99847.31;;;-0.13;100.00
39197;BME280;42889;51.112;13.772;2023-01-29T14:39:46;99856.03;;;-0.11;100.00
39197;BME280;42889;51.112;13.772;2023-01-29T14:42:27;99862.41;;;-0.15;100.00
39197;BME280;42889;51.112;13.772;2023-01-29T14:50:05;99860.75;;;-0.18;100.00
39197;BME280;42889;51.112;13.772;2023-01-29T14:52:50;99863.63;;;-0.22;100.00
39197;BME280;42889;51.112;13.772;2023-01-29T14:55:44;99869.00;;;-0.24;100.00
39197;BME280;42889;51.112;13.772;2023-01-29T14:58:22;99865.50;;;-0.24;100.00
39197;BME280;42889;51.112;13.772;2023-01-29T15:00:53;99860.13;;;-0.23;100.00
39197;BME280;42889;51.112;13.772;2023-01-29T15:03:56;99859.25;;;-0.23;100.00
39197;BME280;42889;51.112;13.772;2023-01-29T15:06:19;99860.13;;;-0.23;100.00
39197;BME280;42889;51.112;13.772;2023-01-29T15:11:43;99858.63;;;-0.29;100.00
39197;BME280;42889;51.112;13.772;2023-01-29T15:14:37;99849.16;;;-0.33;100.00
39197;BME280;42889;51.112;13.772;2023-01-29T15:17:29;99848.34;;;-0.35;100.00
39197;BME280;42889;51.112;13.772;2023-01-29T15:19:58;99847.91;;;-0.44;100.00
39197;BME280;42889;51.112;13.772;2023-01-29T15:22:25;99856.47;;;-0.39;100.00
39197;BME280;42889;51.112;13.772;2023-01-29T15:25:14;99846.94;;;-0.42;100.00
39197;BME280;42889;51.112;13.772;2023-01-29T15:27:42;99833.84;;;-0.45;100.00
39197;BME280;42889;51.112;13.772;2023-01-29T15:30:15;99833.78;;;-0.43;100.00
39197;BME280;42889;51.112;13.772;2023-01-29T15:32:43;99841.94;;;-0.48;100.00
39197;BME280;42889;51.112;13.772;2023-01-29T15:35:28;99845.56;;;-0.50;100.00